Time;durP1;ratioP1;P1;durP2;ratioP2;P2;SDS_P1;SDS_P2;PMS_P1;PMS_P2;Temp;Humidity;BMP_temperature;BMP_pressure;BME280_temperature;BME280_humidity;BME280_pressure;Samples;Min_cycle;Max_cycle;Signal;HPM_P1;HPM_P2
2023/12/07 00:01:23;;;;;;;;;;;3.70;99.90;;;;;;5024876;28;19931;-62
2023/12/07 00:03:52;;;;;;;;;;;3.80;99.90;;;;;;5019021;28;19925;-61
2023/12/07 00:06:22;;;;;;;;;;;3.80;99.90;;;;;;5022447;28;19929;-60
2023/12/07 00:08:50;;;;;;;;;;;3.80;99.90;;;;;;5022904;28;19947;-62
2023/12/07 00:11:24;;;;;;;;;;;3.80;99.90;;;;;;5024687;28;19929;-59
2023/12/07 00:13:52;;;;;;;;;;;3.80;99.90;;;;;;5023562;28;19929;-58
2023/12/07 00:16:22;;;;;;;;;;;3.80;99.90;;;;;;5023541;28;20297;-60
2023/12/07 00:18:50;;;;;;;;;;;3.70;99.90;;;;;;5023119;28;19925;-60
2023/12/07 00:21:18;;;;;;;;;;;3.70;99.90;;;;;;5001517;28;19960;-61
2023/12/07 00:23:45;;;;;;;;;;;3.70;99.90;;;;;;5018004;28;19933;-62
2023/12/07 00:26:13;;;;;;;;;;;3.70;99.90;;;;;;5042892;28;19948;-60
2023/12/07 00:28:41;;;;;;;;;;;3.70;99.90;;;;;;5025682;28;19929;-59
2023/12/07 00:31:10;;;;;;;;;;;3.70;99.90;;;;;;5027968;28;19925;-63
2023/12/07 00:33:38;;;;;;;;;;;3.70;99.90;;;;;;5027642;28;19929;-61
2023/12/07 00:36:06;;;;;;;;;;;3.70;99.90;;;;;;5019877;28;19934;-62
2023/12/07 00:38:34;;;;;;;;;;;3.70;99.90;;;;;;5007393;28;19926;-62
2023/12/07 00:41:04;;;;;;;;;;;3.70;99.90;;;;;;5023708;28;20294;-62
2023/12/07 00:43:33;;;;;;;;;;;3.70;99.90;;;;;;5036983;28;20385;-61
2023/12/07 00:46:04;;;;;;;;;;;3.70;99.90;;;;;;5031162;28;19948;-64
2023/12/07 00:48:35;;;;;;;;;;;3.70;99.90;;;;;;5030902;28;19933;-63
2023/12/07 00:51:06;;;;;;;;;;;3.70;99.90;;;;;;5024956;28;19929;-61
2023/12/07 00:53:34;;;;;;;;;;;3.80;99.90;;;;;;5020946;28;19925;-61
2023/12/07 00:56:04;;;;;;;;;;;3.80;99.90;;;;;;5031597;28;19932;-62
2023/12/07 00:58:31;;;;;;;;;;;3.80;99.90;;;;;;5011663;28;19926;-61
2023/12/07 01:01:00;;;;;;;;;;;3.80;99.90;;;;;;5021131;28;20495;-61
2023/12/07 01:03:28;;;;;;;;;;;3.80;99.90;;;;;;5025806;28;19925;-62
2023/12/07 01:05:57;;;;;;;;;;;3.80;99.90;;;;;;5024907;28;19936;-62
2023/12/07 01:08:25;;;;;;;;;;;3.90;99.90;;;;;;4996505;28;19932;-62
2023/12/07 01:10:54;;;;;;;;;;;3.90;99.90;;;;;;5029793;28;19925;-62
2023/12/07 01:13:21;;;;;;;;;;;3.90;99.90;;;;;;5029598;28;20397;-61
2023/12/07 01:15:50;;;;;;;;;;;3.90;99.90;;;;;;5029096;28;19929;-62
2023/12/07 01:18:19;;;;;;;;;;;3.90;99.90;;;;;;5032133;28;19929;-62
2023/12/07 01:20:50;;;;;;;;;;;3.90;99.90;;;;;;5036419;28;19940;-60
2023/12/07 01:23:18;;;;;;;;;;;3.90;99.90;;;;;;5027084;28;19929;-61
2023/12/07 01:25:46;;;;;;;;;;;3.90;99.90;;;;;;5046996;28;19932;-61
2023/12/07 01:28:14;;;;;;;;;;;3.90;99.90;;;;;;5034527;28;19925;-61
2023/12/07 01:30:43;;;;;;;;;;;3.90;99.90;;;;;;5038063;28;19932;-61
2023/12/07 01:33:11;;;;;;;;;;;3.90;99.90;;;;;;5035016;28;19929;-61
2023/12/07 01:35:39;;;;;;;;;;;4.00;99.90;;;;;;5030688;28;19940;-61
2023/12/07 01:38:08;;;;;;;;;;;4.00;99.90;;;;;;5039213;28;19936;-58
2023/12/07 01:40:39;;;;;;;;;;;4.00;99.90;;;;;;5043781;28;20491;-58
2023/12/07 01:43:08;;;;;;;;;;;4.00;99.90;;;;;;5039505;28;20431;-58
2023/12/07 01:45:36;;;;;;;;;;;4.00;99.90;;;;;;5029388;28;19925;-60
2023/12/07 01:48:06;;;;;;;;;;;4.00;99.90;;;;;;5035898;28;20309;-59
2023/12/07 01:50:34;;;;;;;;;;;4.10;99.90;;;;;;5043695;28;19932;-58
2023/12/07 01:53:03;;;;;;;;;;;4.10;99.90;;;;;;5018587;28;19925;-59
2023/12/07 01:55:36;;;;;;;;;;;4.10;99.90;;;;;;5029043;28;19932;-60
2023/12/07 01:58:07;;;;;;;;;;;4.10;99.90;;;;;;5034845;28;19935;-59
2023/12/07 02:00:36;;;;;;;;;;;4.10;99.90;;;;;;5045978;28;19932;-60
2023/12/07 02:03:09;;;;;;;;;;;4.10;99.90;;;;;;5039661;28;20404;-60
2023/12/07 02:05:37;;;;;;;;;;;4.20;99.90;;;;;;5044759;28;19933;-59
2023/12/07 02:08:05;;;;;;;;;;;4.20;99.90;;;;;;5014011;28;19925;-60
2023/12/07 02:10:41;;;;;;;;;;;4.20;99.90;;;;;;5030992;28;19925;-60
2023/12/07 02:13:12;;;;;;;;;;;4.20;99.90;;;;;;5035698;28;19932;-58
2023/12/07 02:15:40;;;;;;;;;;;4.30;99.90;;;;;;5035316;28;19929;-60
2023/12/07 02:18:18;;;;;;;;;;;4.30;99.90;;;;;;5028213;28;19925;-60
2023/12/07 02:20:51;;;;;;;;;;;4.30;99.90;;;;;;5028232;28;19925;-60
2023/12/07 02:23:21;;;;;;;;;;;4.40;99.90;;;;;;5025577;28;19936;-58
2023/12/07 02:26:10;;;;;;;;;;;4.70;99.90;;;;;;5029657;28;19936;-60
2023/12/07 02:28:41;;;;;;;;;;;4.50;99.90;;;;;;5029206;28;19936;-60
2023/12/07 02:31:11;;;;;;;;;;;4.50;99.90;;;;;;5022125;28;19933;-58
2023/12/07 02:33:39;;;;;;;;;;;4.60;99.90;;;;;;5029716;28;19932;-60
2023/12/07 02:36:07;;;;;;;;;;;4.60;99.90;;;;;;5032444;28;19933;-60
2023/12/07 02:38:37;;;;;;;;;;;4.60;99.90;;;;;;5014093;28;19925;-59
2023/12/07 02:41:06;;;;;;;;;;;4.60;99.90;;;;;;5023993;28;19932;-59
2023/12/07 02:43:34;;;;;;;;;;;4.60;99.90;;;;;;5031215;28;19925;-60
2023/12/07 02:46:02;;;;;;;;;;;4.70;99.90;;;;;;5041141;28;20409;-59
2023/12/07 02:48:30;;;;;;;;;;;4.70;99.90;;;;;;5032761;28;20370;-59
2023/12/07 02:50:58;;;;;;;;;;;4.70;99.90;;;;;;5032124;28;19929;-59
2023/12/07 02:53:26;;;;;;;;;;;4.70;99.90;;;;;;5032308;28;19925;-60
2023/12/07 02:55:54;;;;;;;;;;;4.70;99.90;;;;;;5032391;28;19925;-59
2023/12/07 02:58:22;;;;;;;;;;;4.60;99.90;;;;;;5031645;28;19932;-58
2023/12/07 03:00:50;;;;;;;;;;;4.60;99.90;;;;;;5031299;28;19941;-58
2023/12/07 03:03:23;;;;;;;;;;;4.60;99.90;;;;;;5031991;28;19932;-59
2023/12/07 03:05:51;;;;;;;;;;;4.60;99.90;;;;;;5031867;28;19932;-58
2023/12/07 03:08:19;;;;;;;;;;;4.60;99.90;;;;;;5032046;28;20290;-58
2023/12/07 03:10:49;;;;;;;;;;;4.60;99.90;;;;;;5032018;28;19932;-57
2023/12/07 03:13:17;;;;;;;;;;;4.60;99.90;;;;;;5031927;28;19925;-61
2023/12/07 03:15:45;;;;;;;;;;;4.60;99.90;;;;;;5038337;28;20412;-60
2023/12/07 03:18:13;;;;;;;;;;;4.60;99.90;;;;;;5031507;28;19925;-59
2023/12/07 03:20:41;;;;;;;;;;;4.60;99.90;;;;;;5031888;28;19932;-59
2023/12/07 03:23:09;;;;;;;;;;;4.60;99.90;;;;;;5030774;28;19925;-59
2023/12/07 03:25:37;;;;;;;;;;;4.60;99.90;;;;;;5031574;28;19925;-59
2023/12/07 03:28:05;;;;;;;;;;;4.70;99.90;;;;;;5030581;28;19932;-59
2023/12/07 03:30:32;;;;;;;;;;;4.70;99.90;;;;;;5031687;28;19940;-60
2023/12/07 03:33:00;;;;;;;;;;;4.70;99.90;;;;;;5031879;28;19932;-59
2023/12/07 03:35:28;;;;;;;;;;;4.70;99.90;;;;;;5032124;28;19929;-59
2023/12/07 03:37:56;;;;;;;;;;;4.70;99.90;;;;;;5031554;28;19951;-60
2023/12/07 03:40:24;;;;;;;;;;;4.70;99.90;;;;;;5031926;28;19925;-59
2023/12/07 03:42:52;;;;;;;;;;;4.70;99.90;;;;;;5031990;28;20513;-60
2023/12/07 03:45:28;;;;;;;;;;;4.80;99.90;;;;;;5033572;28;19925;-60
2023/12/07 03:47:56;;;;;;;;;;;4.80;99.90;;;;;;5031424;28;19925;-60
2023/12/07 03:50:24;;;;;;;;;;;4.80;99.90;;;;;;5031497;28;19999;-60
2023/12/07 03:52:52;;;;;;;;;;;4.80;99.90;;;;;;5031659;28;20389;-60
2023/12/07 03:55:23;;;;;;;;;;;4.80;99.90;;;;;;5031009;28;19925;-59
2023/12/07 03:57:50;;;;;;;;;;;4.80;99.90;;;;;;5031814;28;19925;-59
2023/12/07 04:00:18;;;;;;;;;;;4.80;99.90;;;;;;5030804;28;19936;-59
2023/12/07 04:02:46;;;;;;;;;;;4.80;99.90;;;;;;5031303;28;19925;-59
2023/12/07 04:05:14;;;;;;;;;;;4.80;99.90;;;;;;5031545;28;19932;-59
2023/12/07 04:07:42;;;;;;;;;;;4.80;99.90;;;;;;5030607;28;19932;-59
2023/12/07 04:10:10;;;;;;;;;;;4.80;99.90;;;;;;5031576;28;19933;-59
2023/12/07 04:12:38;;;;;;;;;;;4.80;99.90;;;;;;5031439;28;20393;-60
2023/12/07 04:15:07;;;;;;;;;;;4.80;99.90;;;;;;5040861;28;19925;-59
2023/12/07 04:17:35;;;;;;;;;;;4.80;99.90;;;;;;5049491;28;19924;-57
2023/12/07 04:20:04;;;;;;;;;;;4.80;99.90;;;;;;5030055;28;19925;-58
2023/12/07 04:22:32;;;;;;;;;;;4.80;99.90;;;;;;5033192;28;19948;-60
2023/12/07 04:24:59;;;;;;;;;;;4.80;99.90;;;;;;5034300;28;19932;-59
2023/12/07 04:27:27;;;;;;;;;;;4.80;99.90;;;;;;5035459;28;19933;-59
2023/12/07 04:29:56;;;;;;;;;;;4.80;99.90;;;;;;5033984;28;19948;-59
2023/12/07 04:32:25;;;;;;;;;;;4.80;99.90;;;;;;5034839;28;19925;-60
2023/12/07 04:34:53;;;;;;;;;;;4.80;99.90;;;;;;5033892;28;19940;-58
2023/12/07 04:37:21;;;;;;;;;;;4.80;99.90;;;;;;5034911;28;19925;-60
2023/12/07 04:39:49;;;;;;;;;;;4.80;99.90;;;;;;5033779;28;19928;-58
2023/12/07 04:42:17;;;;;;;;;;;4.80;99.90;;;;;;5033526;28;19925;-59
2023/12/07 04:44:45;;;;;;;;;;;4.70;99.90;;;;;;5041523;28;19925;-59
2023/12/07 04:47:13;;;;;;;;;;;4.80;99.90;;;;;;5054789;28;19925;-60
2023/12/07 04:49:41;;;;;;;;;;;4.80;99.90;;;;;;5054654;28;19932;-59
2023/12/07 04:52:09;;;;;;;;;;;4.70;99.90;;;;;;5041551;28;20407;-59
2023/12/07 04:54:36;;;;;;;;;;;4.70;99.90;;;;;;5033699;28;19925;-59
2023/12/07 04:57:04;;;;;;;;;;;4.70;99.90;;;;;;5016064;28;19933;-59
2023/12/07 04:59:32;;;;;;;;;;;4.70;99.90;;;;;;5033682;28;19925;-58
2023/12/07 05:02:02;;;;;;;;;;;4.70;99.90;;;;;;5034186;28;20300;-59
2023/12/07 05:04:30;;;;;;;;;;;4.70;99.90;;;;;;5033600;28;19940;-59
2023/12/07 05:06:58;;;;;;;;;;;4.70;99.90;;;;;;5034033;28;19930;-57
2023/12/07 05:09:26;;;;;;;;;;;4.70;99.90;;;;;;5034354;28;19944;-58
2023/12/07 05:11:54;;;;;;;;;;;4.70;99.90;;;;;;5034791;28;19932;-58
2023/12/07 05:14:21;;;;;;;;;;;4.70;99.90;;;;;;5038044;28;19925;-58
2023/12/07 05:16:52;;;;;;;;;;;4.70;99.90;;;;;;5053212;28;19929;-58
2023/12/07 05:19:21;;;;;;;;;;;4.80;99.90;;;;;;5054212;28;19925;-59
2023/12/07 05:21:50;;;;;;;;;;;4.80;99.90;;;;;;5044439;28;19936;-58
2023/12/07 05:24:18;;;;;;;;;;;4.80;99.90;;;;;;5034217;28;20301;-59
2023/12/07 05:26:47;;;;;;;;;;;4.80;99.90;;;;;;5033266;28;20412;-58
2023/12/07 05:29:15;;;;;;;;;;;4.90;99.90;;;;;;5038078;28;19932;-58
2023/12/07 05:31:43;;;;;;;;;;;4.80;99.90;;;;;;5034277;28;19925;-58
2023/12/07 05:34:11;;;;;;;;;;;4.90;99.90;;;;;;5034006;28;19948;-58
2023/12/07 05:36:39;;;;;;;;;;;4.80;99.90;;;;;;5033968;28;19929;-57
2023/12/07 05:39:07;;;;;;;;;;;4.90;99.90;;;;;;5034135;28;20588;-57
2023/12/07 05:41:35;;;;;;;;;;;4.90;99.90;;;;;;5033859;28;19925;-57
2023/12/07 05:44:03;;;;;;;;;;;4.90;99.90;;;;;;5034648;28;19930;-57
2023/12/07 05:46:32;;;;;;;;;;;4.90;99.90;;;;;;5033703;28;20403;-57
2023/12/07 05:49:00;;;;;;;;;;;4.90;99.90;;;;;;5012753;28;19926;-57
2023/12/07 05:51:28;;;;;;;;;;;4.90;99.90;;;;;;5009363;28;19925;-57
2023/12/07 05:53:57;;;;;;;;;;;4.90;99.90;;;;;;5010572;28;19927;-56
2023/12/07 05:56:24;;;;;;;;;;;4.90;99.90;;;;;;5012127;28;19925;-57
2023/12/07 05:58:52;;;;;;;;;;;4.90;99.90;;;;;;5029682;28;19952;-57
2023/12/07 06:01:20;;;;;;;;;;;5.00;99.90;;;;;;5029538;28;20392;-58
2023/12/07 06:03:48;;;;;;;;;;;4.90;99.90;;;;;;5015559;28;19932;-56
2023/12/07 06:06:16;;;;;;;;;;;4.90;99.90;;;;;;5026585;28;19925;-57
2023/12/07 06:08:44;;;;;;;;;;;4.90;99.90;;;;;;5032199;28;19932;-57
2023/12/07 06:11:12;;;;;;;;;;;4.90;99.90;;;;;;5028000;28;20403;-58
2023/12/07 06:13:41;;;;;;;;;;;5.00;99.90;;;;;;5025517;28;19932;-57
2023/12/07 06:16:13;;;;;;;;;;;5.00;99.90;;;;;;5045537;28;19936;-57
2023/12/07 06:18:41;;;;;;;;;;;4.90;99.90;;;;;;5025989;28;19932;-57
2023/12/07 06:21:09;;;;;;;;;;;5.00;99.90;;;;;;5014768;28;19956;-57
2023/12/07 06:23:37;;;;;;;;;;;5.00;99.90;;;;;;5025616;28;19936;-57
2023/12/07 06:26:06;;;;;;;;;;;5.00;99.90;;;;;;5026187;28;19932;-57
2023/12/07 06:28:34;;;;;;;;;;;5.00;99.90;;;;;;5026034;28;19932;-57
2023/12/07 06:31:06;;;;;;;;;;;5.00;99.90;;;;;;5011322;28;19925;-57
2023/12/07 06:33:34;;;;;;;;;;;5.00;99.90;;;;;;5014312;28;19933;-58
2023/12/07 06:36:05;;;;;;;;;;;5.00;99.90;;;;;;5007993;28;19929;-56
2023/12/07 06:38:33;;;;;;;;;;;5.00;99.90;;;;;;5020309;28;19926;-57
2023/12/07 06:41:01;;;;;;;;;;;5.10;99.90;;;;;;5006889;28;19929;-57
2023/12/07 06:43:29;;;;;;;;;;;5.00;99.90;;;;;;5024350;28;19936;-57
2023/12/07 06:45:57;;;;;;;;;;;5.10;99.90;;;;;;5043989;28;20397;-57
2023/12/07 06:48:24;;;;;;;;;;;5.10;99.90;;;;;;5035998;28;19925;-58
2023/12/07 06:50:52;;;;;;;;;;;5.10;99.90;;;;;;5028238;28;20309;-57
2023/12/07 06:53:21;;;;;;;;;;;5.10;99.90;;;;;;5038250;28;19925;-57
2023/12/07 06:55:49;;;;;;;;;;;5.20;99.90;;;;;;5028937;28;19925;-57
2023/12/07 06:58:17;;;;;;;;;;;5.20;99.90;;;;;;5028972;28;19925;-56
2023/12/07 07:00:45;;;;;;;;;;;5.20;99.90;;;;;;5028086;28;19925;-57
2023/12/07 07:03:13;;;;;;;;;;;5.20;99.90;;;;;;5020752;28;20414;-57
2023/12/07 07:05:42;;;;;;;;;;;5.20;99.90;;;;;;5017464;28;19932;-57
2023/12/07 07:08:10;;;;;;;;;;;5.30;99.90;;;;;;5028763;28;19925;-57
2023/12/07 07:10:38;;;;;;;;;;;5.30;99.90;;;;;;5024221;28;20385;-57
2023/12/07 07:13:06;;;;;;;;;;;5.30;99.90;;;;;;5019420;28;19926;-57
2023/12/07 07:15:34;;;;;;;;;;;5.30;99.90;;;;;;5019812;28;19932;-57
2023/12/07 07:18:02;;;;;;;;;;;5.30;99.90;;;;;;5012939;28;20401;-57
2023/12/07 07:20:30;;;;;;;;;;;5.30;99.90;;;;;;5028530;28;19928;-57
2023/12/07 07:22:58;;;;;;;;;;;5.40;99.90;;;;;;5021302;28;19929;-57
2023/12/07 07:25:26;;;;;;;;;;;5.40;99.90;;;;;;5024004;28;20008;-57
2023/12/07 07:27:54;;;;;;;;;;;5.40;99.90;;;;;;5023604;28;19930;-57
2023/12/07 07:30:22;;;;;;;;;;;5.40;99.90;;;;;;5019163;28;19933;-57
2023/12/07 07:32:53;;;;;;;;;;;5.40;99.90;;;;;;5015853;28;19940;-57
2023/12/07 07:35:22;;;;;;;;;;;5.40;99.90;;;;;;5024357;28;19925;-57
2023/12/07 07:37:50;;;;;;;;;;;5.40;99.90;;;;;;5018848;28;19930;-56
2023/12/07 07:40:18;;;;;;;;;;;5.50;99.90;;;;;;5019014;28;20378;-55
2023/12/07 07:42:46;;;;;;;;;;;5.40;99.90;;;;;;5017341;28;19926;-57
2023/12/07 07:45:14;;;;;;;;;;;5.50;99.90;;;;;;5013458;28;20393;-56
2023/12/07 07:47:42;;;;;;;;;;;5.40;99.90;;;;;;5008486;28;19997;-56
2023/12/07 07:50:10;;;;;;;;;;;5.50;99.90;;;;;;5013244;28;19933;-59
2023/12/07 07:52:40;;;;;;;;;;;5.50;99.90;;;;;;5022161;28;19929;-58
2023/12/07 07:55:10;;;;;;;;;;;5.50;99.90;;;;;;5022328;28;19929;-58
2023/12/07 07:57:38;;;;;;;;;;;5.50;99.90;;;;;;5025095;28;19929;-57
2023/12/07 08:00:08;;;;;;;;;;;5.50;99.90;;;;;;5028062;28;19925;-57
2023/12/07 08:02:36;;;;;;;;;;;5.50;99.90;;;;;;5028065;28;20301;-58
2023/12/07 08:05:05;;;;;;;;;;;5.50;99.90;;;;;;5024445;28;19933;-56
2023/12/07 08:07:32;;;;;;;;;;;5.50;99.90;;;;;;5027282;28;20413;-57
2023/12/07 08:10:00;;;;;;;;;;;5.60;99.90;;;;;;5026261;28;20370;-57
2023/12/07 08:12:28;;;;;;;;;;;5.60;99.90;;;;;;5015162;28;19936;-57
2023/12/07 08:14:56;;;;;;;;;;;5.60;99.90;;;;;;5037299;28;19925;-57
2023/12/07 08:17:26;;;;;;;;;;;5.60;99.90;;;;;;5032732;28;19929;-62
2023/12/07 08:19:54;;;;;;;;;;;5.60;99.90;;;;;;5036130;28;19936;-57
2023/12/07 08:22:22;;;;;;;;;;;5.70;99.90;;;;;;5017192;28;19932;-57
2023/12/07 08:24:50;;;;;;;;;;;5.70;99.90;;;;;;5028188;28;19933;-56
2023/12/07 08:27:32;;;;;;;;;;;5.70;99.90;;;;;;5028612;28;19932;-58
2023/12/07 08:30:01;;;;;;;;;;;5.70;99.90;;;;;;5028757;28;20389;-57
2023/12/07 08:32:29;;;;;;;;;;;5.70;99.90;;;;;;5027070;28;20404;-58
2023/12/07 08:34:57;;;;;;;;;;;5.70;99.90;;;;;;5028846;28;19929;-59
2023/12/07 08:37:25;;;;;;;;;;;5.70;99.90;;;;;;5010762;28;20397;-59
2023/12/07 08:39:53;;;;;;;;;;;5.80;99.90;;;;;;5028534;28;20392;-57
2023/12/07 08:42:21;;;;;;;;;;;5.80;99.90;;;;;;5028750;28;19929;-56
2023/12/07 08:44:49;;;;;;;;;;;5.80;99.90;;;;;;5027981;28;19952;-56
2023/12/07 08:47:17;;;;;;;;;;;5.80;99.90;;;;;;5028523;28;20405;-57
2023/12/07 08:49:45;;;;;;;;;;;5.80;99.90;;;;;;5015952;28;19925;-57
2023/12/07 08:52:13;;;;;;;;;;;5.80;99.90;;;;;;5019259;28;19925;-57
2023/12/07 08:54:58;;;;;;;;;;;5.90;99.90;;;;;;5051883;28;19929;-57
2023/12/07 08:57:25;;;;;;;;;;;5.90;99.90;;;;;;5046273;28;20381;-57
2023/12/07 08:59:54;;;;;;;;;;;5.90;99.90;;;;;;5030948;28;19936;-57
2023/12/07 09:02:22;;;;;;;;;;;5.90;99.90;;;;;;5032141;28;19925;-56
2023/12/07 09:05:05;;;;;;;;;;;5.90;99.90;;;;;;5031520;28;19929;-56
2023/12/07 09:07:34;;;;;;;;;;;6.00;99.90;;;;;;5022683;28;19925;-57
2023/12/07 09:10:02;;;;;;;;;;;6.00;99.90;;;;;;5031285;28;19925;-56
2023/12/07 09:12:30;;;;;;;;;;;6.00;99.90;;;;;;5031292;28;19925;-57
2023/12/07 09:15:09;;;;;;;;;;;6.00;99.90;;;;;;5031115;28;19925;-56
2023/12/07 09:17:39;;;;;;;;;;;6.00;99.90;;;;;;5031180;28;19925;-55
2023/12/07 09:20:14;;;;;;;;;;;6.00;99.90;;;;;;5030966;28;19932;-57
2023/12/07 09:22:46;;;;;;;;;;;6.00;99.90;;;;;;5026885;28;19936;-56
2023/12/07 09:25:17;;;;;;;;;;;6.10;99.90;;;;;;5038046;28;20278;-57
2023/12/07 09:27:46;;;;;;;;;;;6.10;99.90;;;;;;5031422;28;19940;-57
2023/12/07 09:30:14;;;;;;;;;;;6.10;99.90;;;;;;5031003;28;20393;-57
2023/12/07 09:32:42;;;;;;;;;;;6.10;99.90;;;;;;5031141;28;20741;-57
2023/12/07 09:35:18;;;;;;;;;;;6.10;99.90;;;;;;5030881;28;19929;-57
2023/12/07 09:37:48;;;;;;;;;;;6.10;99.90;;;;;;5027952;28;19924;-56
2023/12/07 09:40:24;;;;;;;;;;;6.20;99.90;;;;;;5036057;28;19932;-56
2023/12/07 09:42:52;;;;;;;;;;;6.20;99.90;;;;;;5030353;28;19928;-57
2023/12/07 09:45:21;;;;;;;;;;;6.20;99.90;;;;;;5030635;28;19929;-56
2023/12/07 09:47:51;;;;;;;;;;;6.20;99.90;;;;;;5030582;28;19932;-57
2023/12/07 09:50:23;;;;;;;;;;;6.20;99.90;;;;;;5030567;28;19925;-56
2023/12/07 09:52:51;;;;;;;;;;;6.20;99.90;;;;;;5025239;28;19925;-55
2023/12/07 09:55:34;;;;;;;;;;;6.20;99.90;;;;;;5029163;28;19925;-55
2023/12/07 09:58:06;;;;;;;;;;;6.20;99.90;;;;;;5030232;28;20570;-56
2023/12/07 10:00:36;;;;;;;;;;;6.30;99.90;;;;;;5027590;28;19940;-56
2023/12/07 10:03:07;;;;;;;;;;;6.30;99.90;;;;;;5036997;28;19924;-57
2023/12/07 10:05:56;;;;;;;;;;;6.30;99.90;;;;;;5042077;28;19925;-57
2023/12/07 10:08:27;;;;;;;;;;;6.30;99.90;;;;;;5025495;28;19928;-56
2023/12/07 10:11:05;;;;;;;;;;;6.30;99.90;;;;;;5043887;28;19925;-57
2023/12/07 10:13:33;;;;;;;;;;;6.30;99.90;;;;;;5025217;28;19952;-57
2023/12/07 10:16:11;;;;;;;;;;;6.30;99.90;;;;;;5028739;28;19933;-57
2023/12/07 10:18:40;;;;;;;;;;;6.30;99.90;;;;;;5039588;28;19925;-57
2023/12/07 10:21:11;;;;;;;;;;;6.40;99.90;;;;;;5031349;28;19932;-57
2023/12/07 10:23:40;;;;;;;;;;;6.40;99.90;;;;;;5040692;28;19925;-57
2023/12/07 10:26:10;;;;;;;;;;;6.40;99.90;;;;;;5030055;28;19954;-57
2023/12/07 10:28:39;;;;;;;;;;;6.40;99.90;;;;;;5040561;28;20306;-57
2023/12/07 10:31:10;;;;;;;;;;;6.50;99.90;;;;;;5048848;28;20080;-57
2023/12/07 10:33:38;;;;;;;;;;;6.40;99.90;;;;;;5044646;28;19936;-57
2023/12/07 10:36:06;;;;;;;;;;;6.50;99.90;;;;;;5047733;28;19925;-57
2023/12/07 10:38:34;;;;;;;;;;;6.50;99.90;;;;;;5019785;28;20511;-56
2023/12/07 10:41:08;;;;;;;;;;;6.50;99.90;;;;;;5029359;28;19932;-56
2023/12/07 10:43:42;;;;;;;;;;;6.50;99.90;;;;;;5027418;28;19925;-57
2023/12/07 10:46:13;;;;;;;;;;;6.50;99.90;;;;;;5026439;28;19964;-58
2023/12/07 10:48:41;;;;;;;;;;;6.50;99.90;;;;;;5028087;28;19957;-57
2023/12/07 10:51:13;;;;;;;;;;;6.50;99.90;;;;;;5027365;28;20534;-58
2023/12/07 10:53:43;;;;;;;;;;;6.50;99.90;;;;;;5034851;28;19925;-57
2023/12/07 10:56:16;;;;;;;;;;;6.60;99.90;;;;;;5028981;28;19929;-57
2023/12/07 10:58:45;;;;;;;;;;;6.60;99.90;;;;;;5029010;28;19932;-57
2023/12/07 11:01:14;;;;;;;;;;;6.60;99.90;;;;;;5027759;28;20490;-58
2023/12/07 11:03:43;;;;;;;;;;;6.60;99.90;;;;;;5039696;28;20463;-58
2023/12/07 11:06:11;;;;;;;;;;;6.60;99.90;;;;;;5041474;28;20396;-58
2023/12/07 11:08:42;;;;;;;;;;;6.60;99.90;;;;;;5033129;28;19933;-58
2023/12/07 11:11:15;;;;;;;;;;;6.60;99.90;;;;;;5026938;28;20219;-57
2023/12/07 11:13:51;;;;;;;;;;;6.60;99.90;;;;;;5028488;28;19925;-58
2023/12/07 11:16:28;;;;;;;;;;;6.60;99.90;;;;;;5027907;28;19932;-58
2023/12/07 11:18:56;;;;;;;;;;;6.60;99.90;;;;;;5028735;28;19925;-58
2023/12/07 11:21:27;;;;;;;;;;;6.60;99.90;;;;;;5028560;28;19929;-58
2023/12/07 11:23:55;;;;;;;;;;;6.60;99.90;;;;;;5026571;28;19925;-58
2023/12/07 11:26:23;;;;;;;;;;;6.60;99.90;;;;;;5027325;28;19929;-58
2023/12/07 11:28:51;;;;;;;;;;;6.60;99.90;;;;;;5027495;28;20427;-58
2023/12/07 11:31:19;;;;;;;;;;;6.60;99.90;;;;;;5028634;28;19925;-58
2023/12/07 11:33:47;;;;;;;;;;;6.60;99.90;;;;;;5044272;28;19932;-57
2023/12/07 11:36:15;;;;;;;;;;;6.60;99.90;;;;;;5048960;28;19936;-57
2023/12/07 11:39:06;;;;;;;;;;;6.60;99.90;;;;;;5033551;28;19929;-57
2023/12/07 11:41:45;;;;;;;;;;;6.70;99.90;;;;;;5048510;28;19925;-58
2023/12/07 11:44:13;;;;;;;;;;;6.70;99.90;;;;;;5028514;28;19929;-58
2023/12/07 11:46:40;;;;;;;;;;;6.70;99.90;;;;;;5028760;28;19925;-57
2023/12/07 11:49:10;;;;;;;;;;;6.70;99.90;;;;;;5028429;28;19925;-58
2023/12/07 11:51:55;;;;;;;;;;;6.70;99.90;;;;;;5024810;28;20424;-57
2023/12/07 11:54:22;;;;;;;;;;;6.70;99.90;;;;;;5028743;28;19929;-57
2023/12/07 11:56:54;;;;;;;;;;;6.70;99.90;;;;;;5028381;28;19936;-58
2023/12/07 11:59:22;;;;;;;;;;;6.70;99.90;;;;;;5033268;28;19925;-57
2023/12/07 12:02:02;;;;;;;;;;;6.80;99.90;;;;;;5026750;28;20305;-58
2023/12/07 12:04:30;;;;;;;;;;;6.70;99.90;;;;;;5028010;28;20247;-57
2023/12/07 12:06:58;;;;;;;;;;;6.70;99.90;;;;;;5026441;28;19925;-58
2023/12/07 12:09:26;;;;;;;;;;;6.80;99.90;;;;;;5042429;28;19936;-59
2023/12/07 12:12:00;;;;;;;;;;;6.80;99.90;;;;;;5047181;28;19925;-58
2023/12/07 12:14:28;;;;;;;;;;;6.80;99.90;;;;;;5028324;28;19925;-57
2023/12/07 12:16:56;;;;;;;;;;;6.80;99.90;;;;;;5028250;28;19925;-58
2023/12/07 12:19:25;;;;;;;;;;;6.80;99.90;;;;;;5028252;28;19933;-57
2023/12/07 12:22:02;;;;;;;;;;;6.80;99.90;;;;;;5027436;28;20386;-57
2023/12/07 12:24:34;;;;;;;;;;;6.80;99.90;;;;;;5010269;28;19930;-57
2023/12/07 12:27:02;;;;;;;;;;;6.80;99.90;;;;;;5028090;28;19925;-57
2023/12/07 12:29:31;;;;;;;;;;;6.80;99.90;;;;;;5027430;28;20480;-56
2023/12/07 12:32:02;;;;;;;;;;;6.80;99.90;;;;;;5027573;28;20412;-56
2023/12/07 12:34:35;;;;;;;;;;;6.80;99.90;;;;;;5028306;28;20281;-56
2023/12/07 12:37:05;;;;;;;;;;;6.80;99.90;;;;;;5027726;28;19933;-56
2023/12/07 12:39:34;;;;;;;;;;;6.80;99.90;;;;;;5026434;28;19932;-56
2023/12/07 12:42:03;;;;;;;;;;;6.80;99.90;;;;;;5027811;28;20365;-56
2023/12/07 12:44:31;;;;;;;;;;;6.90;99.90;;;;;;5030957;28;20518;-56
2023/12/07 12:47:08;;;;;;;;;;;6.90;99.90;;;;;;5032358;28;19932;-56
2023/12/07 12:49:39;;;;;;;;;;;6.90;99.90;;;;;;5031804;28;19932;-56
2023/12/07 12:52:16;;;;;;;;;;;6.90;99.90;;;;;;5030504;28;19956;-56
2023/12/07 12:54:44;;;;;;;;;;;6.90;99.90;;;;;;5031394;28;19929;-56
2023/12/07 12:57:13;;;;;;;;;;;6.90;99.90;;;;;;5031552;28;19925;-56
2023/12/07 12:59:41;;;;;;;;;;;6.90;99.90;;;;;;5050423;28;19932;-56
2023/12/07 13:02:09;;;;;;;;;;;6.90;99.90;;;;;;5043045;28;20378;-56
2023/12/07 13:04:38;;;;;;;;;;;6.90;99.90;;;;;;5031453;28;19929;-56
2023/12/07 13:07:09;;;;;;;;;;;6.90;99.90;;;;;;5031294;28;19925;-56
2023/12/07 13:09:38;;;;;;;;;;;6.90;99.90;;;;;;5030554;28;19948;-56
2023/12/07 13:12:06;;;;;;;;;;;6.80;99.90;;;;;;5029976;28;19925;-56
2023/12/07 13:14:35;;;;;;;;;;;6.80;99.90;;;;;;5029363;28;19933;-56
2023/12/07 13:17:04;;;;;;;;;;;6.80;99.90;;;;;;5029769;28;19933;-57
2023/12/07 13:19:33;;;;;;;;;;;6.80;99.90;;;;;;5030718;28;19925;-55
2023/12/07 13:22:03;;;;;;;;;;;6.80;99.90;;;;;;5031181;28;20289;-57
2023/12/07 13:24:30;;;;;;;;;;;6.70;99.90;;;;;;5012974;28;19936;-57
2023/12/07 13:27:00;;;;;;;;;;;6.70;99.90;;;;;;5004781;28;19929;-58
2023/12/07 13:29:28;;;;;;;;;;;6.70;99.90;;;;;;5030791;28;19932;-57
2023/12/07 13:32:04;;;;;;;;;;;6.70;99.90;;;;;;5030875;28;19925;-57
2023/12/07 13:34:33;;;;;;;;;;;6.70;99.90;;;;;;5025695;28;20015;-57
2023/12/07 13:37:02;;;;;;;;;;;6.60;99.90;;;;;;5017368;28;19925;-57
2023/12/07 13:39:30;;;;;;;;;;;6.60;99.90;;;;;;5012415;28;20357;-57
2023/12/07 13:42:00;;;;;;;;;;;6.60;99.90;;;;;;5020666;28;19932;-57
2023/12/07 13:44:32;;;;;;;;;;;6.60;99.90;;;;;;5024430;28;19936;-57
2023/12/07 13:47:02;;;;;;;;;;;6.60;99.90;;;;;;5022979;28;19925;-55
2023/12/07 13:49:30;;;;;;;;;;;6.50;99.90;;;;;;5019233;28;19925;-55
2023/12/07 13:52:01;;;;;;;;;;;6.50;99.90;;;;;;5022023;28;19929;-54
2023/12/07 13:54:36;;;;;;;;;;;6.50;99.90;;;;;;5049539;28;19929;-54
2023/12/07 13:57:07;;;;;;;;;;;6.50;99.90;;;;;;5040811;28;19948;-54
2023/12/07 13:59:37;;;;;;;;;;;6.50;99.90;;;;;;5039899;28;19925;-55
2023/12/07 14:02:05;;;;;;;;;;;6.50;99.90;;;;;;5029720;28;19929;-54
2023/12/07 14:04:33;;;;;;;;;;;6.50;99.90;;;;;;5029693;28;20550;-54
2023/12/07 14:07:12;;;;;;;;;;;6.50;99.90;;;;;;5029819;28;19925;-54
2023/12/07 14:09:40;;;;;;;;;;;6.50;99.90;;;;;;5028705;28;19932;-54
2023/12/07 14:12:23;;;;;;;;;;;6.50;99.90;;;;;;5027005;28;19929;-54
2023/12/07 14:14:51;;;;;;;;;;;6.50;99.90;;;;;;5028127;28;20408;-54
2023/12/07 14:17:19;;;;;;;;;;;6.40;99.90;;;;;;5030053;28;19934;-54
2023/12/07 14:19:49;;;;;;;;;;;6.50;99.90;;;;;;5028878;28;20443;-54
2023/12/07 14:22:26;;;;;;;;;;;6.40;99.90;;;;;;5029718;28;19932;-55
2023/12/07 14:24:54;;;;;;;;;;;6.40;99.90;;;;;;5029588;28;19925;-55
2023/12/07 14:27:22;;;;;;;;;;;6.40;99.90;;;;;;5024597;28;19932;-54
2023/12/07 14:29:50;;;;;;;;;;;6.40;99.90;;;;;;5049515;28;20301;-55
2023/12/07 14:32:18;;;;;;;;;;;6.40;99.90;;;;;;5039389;28;19932;-54
2023/12/07 14:34:46;;;;;;;;;;;6.40;99.90;;;;;;5019863;28;19925;-54
2023/12/07 14:37:14;;;;;;;;;;;6.40;99.90;;;;;;5030984;28;20103;-55
2023/12/07 14:39:43;;;;;;;;;;;6.40;99.90;;;;;;5027404;28;19929;-54
2023/12/07 14:42:11;;;;;;;;;;;6.40;99.90;;;;;;5028975;28;19929;-54
2023/12/07 14:44:39;;;;;;;;;;;6.40;99.90;;;;;;5028999;28;19925;-55